createdAt,value
2022-10-16T00:01:08.514Z,80.71
2022-10-16T00:03:11.769Z,80.55
2022-10-16T00:05:14.365Z,80.51
2022-10-16T00:07:16.963Z,80.48
2022-10-16T00:09:19.575Z,80.34
2022-10-16T00:11:25.768Z,80.40
2022-10-16T00:13:28.353Z,80.33
2022-10-16T00:15:30.976Z,80.49
2022-10-16T00:17:34.135Z,80.56
2022-10-16T00:19:36.773Z,80.58
2022-10-16T00:21:39.444Z,80.66
2022-10-16T00:23:42.167Z,80.45
2022-10-16T00:25:44.782Z,80.55
2022-10-16T00:27:48.657Z,80.87
2022-10-16T00:29:52.183Z,79.85
2022-10-16T00:31:54.784Z,79.80
2022-10-16T00:33:57.829Z,79.84
2022-10-16T00:36:00.621Z,80.05
2022-10-16T00:38:03.257Z,79.93
2022-10-16T00:40:06.721Z,80.22
2022-10-16T00:42:13.306Z,80.45
2022-10-16T00:44:46.772Z,80.17
2022-10-16T00:46:49.418Z,80.38
2022-10-16T00:48:57.636Z,80.31
2022-10-16T00:51:00.725Z,80.38
2022-10-16T00:53:04.884Z,80.19
2022-10-16T00:55:08.722Z,80.22
2022-10-16T00:57:11.399Z,80.30
2022-10-16T00:59:18.039Z,80.26
2022-10-16T01:01:22.376Z,80.44
2022-10-16T01:03:28.848Z,80.45
2022-10-16T01:05:38.244Z,80.50
2022-10-16T01:07:55.435Z,80.43
2022-10-16T01:10:09.456Z,80.66
2022-10-16T01:12:17.238Z,80.51
2022-10-16T01:14:27.408Z,80.26
2022-10-16T01:16:41.441Z,80.48
2022-10-16T01:18:46.959Z,80.29
2022-10-16T01:20:55.758Z,80.47
2022-10-16T01:23:06.284Z,80.26
2022-10-16T01:25:18.589Z,80.23
2022-10-16T01:27:27.855Z,80.06
2022-10-16T01:29:36.674Z,80.27
2022-10-16T01:31:43.179Z,80.31
2022-10-16T01:33:49.569Z,80.62
2022-10-16T01:35:56.461Z,80.87
2022-10-16T01:38:04.597Z,80.87
2022-10-16T01:40:11.691Z,81.11
2022-10-16T01:42:18.999Z,81.08
2022-10-16T01:44:27.672Z,81.19
2022-10-16T01:46:32.583Z,81.09
2022-10-16T01:48:37.211Z,81.16
2022-10-16T01:50:43.620Z,81.46
2022-10-16T01:52:51.680Z,81.26
2022-10-16T01:54:57.235Z,81.62
2022-10-16T01:57:01.291Z,81.28
2022-10-16T01:59:07.496Z,81.23
2022-10-16T02:01:13.770Z,81.93
2022-10-16T02:03:20.156Z,81.78
2022-10-16T02:05:27.804Z,82.17
2022-10-16T02:07:30.471Z,82.44
2022-10-16T02:09:35.029Z,82.28
2022-10-16T02:11:37.599Z,82.21
2022-10-16T02:13:46.151Z,82.34
2022-10-16T02:15:48.760Z,82.49
2022-10-16T02:17:52.667Z,82.13
2022-10-16T02:19:57.144Z,82.15
2022-10-16T02:25:30.826Z,82.73
2022-10-16T02:27:40.721Z,82.58
2022-10-16T02:32:03.430Z,82.85
2022-10-16T02:34:08.745Z,83.14
2022-10-16T02:36:11.997Z,83.11
2022-10-16T02:38:16.136Z,83.42
2022-10-16T02:40:22.853Z,83.39
2022-10-16T02:42:34.805Z,83.38
2022-10-16T02:44:37.372Z,83.12
2022-10-16T02:46:39.932Z,83.57
2022-10-16T02:48:42.606Z,83.38
2022-10-16T02:50:46.571Z,83.36
2022-10-16T02:52:49.173Z,83.80
2022-10-16T02:54:51.725Z,83.85
2022-10-16T02:56:54.339Z,83.85
2022-10-16T02:58:56.922Z,83.95
2022-10-16T03:00:59.652Z,84.06
2022-10-16T03:03:02.291Z,84.13
2022-10-16T03:05:05.329Z,84.17
2022-10-16T03:07:09.517Z,84.23
2022-10-16T03:09:12.066Z,84.32
2022-10-16T03:11:14.683Z,84.49
2022-10-16T03:13:17.267Z,84.27
2022-10-16T03:15:19.845Z,84.28
2022-10-16T03:17:22.382Z,84.37
2022-10-16T03:19:25.034Z,84.23
2022-10-16T03:21:27.653Z,84.17
2022-10-16T03:23:31.836Z,84.21
2022-10-16T03:25:34.414Z,84.14
2022-10-16T03:27:37.239Z,84.15
2022-10-16T03:29:39.794Z,83.93
2022-10-16T03:31:42.605Z,83.78
2022-10-16T03:33:45.174Z,83.76
2022-10-16T03:35:53.955Z,83.94
2022-10-16T03:37:57.504Z,84.17
2022-10-16T03:40:01.580Z,84.33
2022-10-16T03:42:04.517Z,84.63
2022-10-16T03:44:07.326Z,84.69
2022-10-16T03:46:09.897Z,84.87
2022-10-16T03:48:13.549Z,84.73
2022-10-16T03:50:16.359Z,84.84
2022-10-16T03:54:23.046Z,84.29
2022-10-16T03:56:26.976Z,84.60
2022-10-16T03:58:29.596Z,84.50
2022-10-16T04:00:32.174Z,84.97
2022-10-16T04:02:34.800Z,84.72
2022-10-16T04:04:37.754Z,84.63
2022-10-16T04:06:40.313Z,84.53
2022-10-16T04:08:44.471Z,84.30
2022-10-16T04:10:47.829Z,84.30
2022-10-16T04:12:51.777Z,82.92
2022-10-16T04:14:54.365Z,83.48
2022-10-16T04:16:56.928Z,83.28
2022-10-16T04:18:59.544Z,83.68
2022-10-16T04:21:04.848Z,82.74
2022-10-16T04:23:07.487Z,83.21
2022-10-16T04:25:10.999Z,83.68
2022-10-16T04:27:13.544Z,83.83
2022-10-16T04:29:17.467Z,84.31
2022-10-16T04:31:20.249Z,84.28
2022-10-16T04:33:22.906Z,84.50
2022-10-16T04:35:25.466Z,84.43
2022-10-16T04:37:29.204Z,84.68
2022-10-16T04:39:32.003Z,84.58
2022-10-16T04:41:34.558Z,84.58
2022-10-16T04:43:37.185Z,84.59
2022-10-16T04:45:41.086Z,84.87
2022-10-16T04:47:43.695Z,84.56
2022-10-16T04:49:46.243Z,85.03
2022-10-16T04:51:48.820Z,84.63
2022-10-16T04:53:51.403Z,84.44
2022-10-16T04:55:53.989Z,84.76
2022-10-16T04:57:56.585Z,84.83
2022-10-16T04:59:59.137Z,84.93
2022-10-16T05:02:03.073Z,85.21
2022-10-16T05:04:05.641Z,85.45
2022-10-16T05:06:08.532Z,85.06
2022-10-16T05:08:11.185Z,85.24
2022-10-16T05:10:13.815Z,85.54
2022-10-16T05:12:16.615Z,85.22
2022-10-16T05:14:19.373Z,85.65
2022-10-16T05:16:22.003Z,85.42
2022-10-16T05:18:25.972Z,85.57
2022-10-16T05:20:28.615Z,85.61
2022-10-16T05:22:31.371Z,85.79
2022-10-16T05:24:33.937Z,85.64
2022-10-16T05:26:36.574Z,85.27
2022-10-16T05:28:39.291Z,85.35
2022-10-16T05:30:41.852Z,84.45
2022-10-16T05:32:48.535Z,84.91
2022-10-16T05:34:52.805Z,84.98
2022-10-16T05:36:55.459Z,84.95
2022-10-16T05:38:58.100Z,84.72
2022-10-16T05:41:00.680Z,84.97
2022-10-16T05:43:03.225Z,84.84
2022-10-16T05:45:06.988Z,84.69
2022-10-16T05:47:09.616Z,84.87
2022-10-16T05:49:12.217Z,83.72
2022-10-16T05:51:16.758Z,83.93
2022-10-16T05:53:26.317Z,84.33
2022-10-16T05:55:28.890Z,84.75
2022-10-16T05:57:32.159Z,83.93
2022-10-16T05:59:34.760Z,84.21
2022-10-16T06:01:37.367Z,84.52
2022-10-16T06:03:40.144Z,84.40
2022-10-16T06:05:43.788Z,84.93
2022-10-16T06:07:47.730Z,84.90
2022-10-16T06:09:50.875Z,84.91
2022-10-16T06:11:53.449Z,85.19
2022-10-16T06:13:58.166Z,85.02
2022-10-16T06:16:01.770Z,85.10
2022-10-16T06:18:07.604Z,84.81
2022-10-16T06:20:11.012Z,85.17
2022-10-16T06:22:13.642Z,85.16
2022-10-16T06:24:17.566Z,85.03
2022-10-16T06:26:22.007Z,85.13
2022-10-16T06:28:24.641Z,85.26
2022-10-16T06:30:29.745Z,85.40
2022-10-16T06:32:32.336Z,85.39
2022-10-16T06:34:35.335Z,84.93
2022-10-16T06:36:38.350Z,85.45
2022-10-16T06:38:41.024Z,85.97
2022-10-16T06:40:44.948Z,85.99
2022-10-16T06:42:47.549Z,85.91
2022-10-16T06:44:50.160Z,85.83
2022-10-16T06:46:53.152Z,86.06
2022-10-16T06:48:55.768Z,86.21
2022-10-16T06:51:00.154Z,86.56
2022-10-16T06:53:02.785Z,86.54
2022-10-16T06:55:08.125Z,86.23
2022-10-16T06:57:12.063Z,86.47
2022-10-16T06:59:14.659Z,86.75
2022-10-16T07:01:19.400Z,87.00
2022-10-16T07:03:21.966Z,87.10
2022-10-16T07:05:24.587Z,87.32
2022-10-16T07:07:27.596Z,87.61
2022-10-16T07:11:38.828Z,87.19
2022-10-16T07:13:44.487Z,87.46
2022-10-16T07:15:47.077Z,87.20
2022-10-16T07:17:49.639Z,86.81
2022-10-16T07:19:54.115Z,86.86
2022-10-16T07:21:57.885Z,86.72
2022-10-16T07:24:02.064Z,85.58
2022-10-16T07:26:06.109Z,85.50
2022-10-16T07:28:08.727Z,85.25
2022-10-16T07:30:13.024Z,85.23
2022-10-16T07:32:15.648Z,85.97
2022-10-16T07:34:20.475Z,86.62
2022-10-16T07:36:23.495Z,86.05
2022-10-16T07:38:26.133Z,85.44
2022-10-16T07:40:28.987Z,85.24
2022-10-16T07:42:31.562Z,84.80
2022-10-16T07:44:34.197Z,83.91
2022-10-16T07:46:38.277Z,84.27
2022-10-16T07:48:40.866Z,84.09
2022-10-16T07:50:43.670Z,84.18
2022-10-16T07:52:46.239Z,84.31
2022-10-16T07:54:48.922Z,83.97
2022-10-16T07:56:51.512Z,83.82
2022-10-16T07:58:54.745Z,84.40
2022-10-16T08:00:57.672Z,85.07
2022-10-16T08:03:01.973Z,85.58
2022-10-16T08:05:04.929Z,85.47
2022-10-16T08:07:08.914Z,85.20
2022-10-16T08:09:11.568Z,84.84
2022-10-16T08:11:15.149Z,84.31
2022-10-16T08:13:17.748Z,83.88
2022-10-16T08:15:20.928Z,84.32
2022-10-16T08:17:23.965Z,84.21
2022-10-16T08:19:28.024Z,84.55
2022-10-16T08:21:30.648Z,84.82
2022-10-16T08:23:34.099Z,83.83
2022-10-16T08:25:37.792Z,82.85
2022-10-16T08:27:40.484Z,82.37
2022-10-16T08:29:43.090Z,81.94
2022-10-16T08:31:45.750Z,82.02
2022-10-16T08:33:48.866Z,81.66
2022-10-16T08:35:55.643Z,81.70
2022-10-16T08:37:58.260Z,81.78
2022-10-16T08:40:03.280Z,81.98
2022-10-16T08:42:30.139Z,82.20
2022-10-16T08:44:46.117Z,81.96
2022-10-16T08:46:55.173Z,81.11
2022-10-16T08:49:00.869Z,80.83
2022-10-16T08:51:06.945Z,80.31
2022-10-16T08:53:17.572Z,79.85
2022-10-16T08:55:34.317Z,79.76
2022-10-16T08:57:36.957Z,79.63
2022-10-16T08:59:39.518Z,78.73
2022-10-16T09:01:43.780Z,78.84
2022-10-16T09:04:09.644Z,78.93
2022-10-16T09:06:27.914Z,79.24
2022-10-16T09:08:42.448Z,79.40
2022-10-16T09:10:56.641Z,78.70
2022-10-16T09:13:10.644Z,78.21
2022-10-16T09:15:24.826Z,78.18
2022-10-16T09:17:47.708Z,76.63
2022-10-16T09:19:55.548Z,76.60
2022-10-16T09:22:01.900Z,76.74
2022-10-16T09:24:13.911Z,76.87
2022-10-16T09:26:19.016Z,76.84
2022-10-16T09:28:22.269Z,77.05
2022-10-16T09:30:28.654Z,77.27
2022-10-16T09:32:32.076Z,77.56
2022-10-16T09:34:37.921Z,78.12
2022-10-16T09:36:43.954Z,78.46
2022-10-16T09:38:47.860Z,78.30
2022-10-16T09:40:58.972Z,78.76
2022-10-16T09:43:18.986Z,79.05
2022-10-16T09:45:24.849Z,79.20
2022-10-16T09:47:30.188Z,79.05
2022-10-16T09:49:33.227Z,79.53
2022-10-16T09:51:37.793Z,79.72
2022-10-16T09:53:43.330Z,79.95
2022-10-16T09:55:54.892Z,80.54
2022-10-16T09:57:57.748Z,80.38
2022-10-16T10:00:00.883Z,80.25
2022-10-16T10:02:12.439Z,80.04
2022-10-16T10:04:15.398Z,79.91
2022-10-16T10:06:25.196Z,79.63
2022-10-16T10:08:27.807Z,79.56
2022-10-16T10:10:32.213Z,78.94
2022-10-16T10:12:37.546Z,78.40
2022-10-16T10:14:43.860Z,78.21
2022-10-16T10:16:46.673Z,78.39
2022-10-16T10:19:00.198Z,78.50
2022-10-16T10:21:06.130Z,78.26
2022-10-16T10:23:23.258Z,78.37
2022-10-16T10:25:51.793Z,78.16
2022-10-16T10:28:20.184Z,77.66
2022-10-16T10:30:27.236Z,76.91
2022-10-16T10:32:40.175Z,75.75
2022-10-16T10:35:05.025Z,75.15
2022-10-16T10:37:25.328Z,73.64
2022-10-16T10:39:34.691Z,73.47
2022-10-16T10:42:16.584Z,73.58
2022-10-16T10:44:32.610Z,71.02
2022-10-16T10:46:40.907Z,70.78
2022-10-16T10:48:59.017Z,70.71
2022-10-16T10:51:11.303Z,68.63
2022-10-16T10:53:23.874Z,66.90
2022-10-16T10:55:35.661Z,66.90
2022-10-16T10:57:43.662Z,63.02
2022-10-16T11:00:11.442Z,63.28
2022-10-16T11:02:24.223Z,63.53
2022-10-16T11:04:42.818Z,62.86
2022-10-16T11:06:49.527Z,61.33
2022-10-16T11:08:58.976Z,60.51
2022-10-16T11:11:05.454Z,61.10
2022-10-16T11:13:18.115Z,61.32
2022-10-16T11:15:27.613Z,60.59
2022-10-16T11:17:33.802Z,61.04
2022-10-16T11:19:43.565Z,61.73
2022-10-16T11:21:52.344Z,61.88
2022-10-16T11:23:59.309Z,62.92
2022-10-16T11:26:05.577Z,62.83
2022-10-16T11:28:14.289Z,59.37
2022-10-16T11:30:22.140Z,59.78
2022-10-16T11:32:31.074Z,58.72
2022-10-16T11:34:39.600Z,57.93
2022-10-16T11:36:46.953Z,58.50
2022-10-16T11:38:57.243Z,57.89
2022-10-16T11:41:04.218Z,57.85
2022-10-16T11:43:15.997Z,58.94
2022-10-16T11:45:30.450Z,57.72
2022-10-16T11:50:04.304Z,58.11
2022-10-16T11:54:24.669Z,57.29
2022-10-16T11:56:27.612Z,57.76
2022-10-16T11:58:35.325Z,58.31
2022-10-16T12:00:43.169Z,57.74
2022-10-16T12:02:58.392Z,58.68
2022-10-16T12:05:14.379Z,57.61
2022-10-16T12:07:21.553Z,57.17
2022-10-16T12:09:28.477Z,57.39
2022-10-16T12:11:37.783Z,57.06
2022-10-16T12:13:45.339Z,57.77
2022-10-16T12:15:58.827Z,58.29
2022-10-16T12:18:03.706Z,58.42
2022-10-16T12:20:23.953Z,57.80
2022-10-16T12:22:30.982Z,58.63
2022-10-16T12:24:37.300Z,58.61
2022-10-16T12:26:42.759Z,58.68
2022-10-16T12:28:49.422Z,57.91
2022-10-16T12:30:56.508Z,57.77
2022-10-16T12:33:02.375Z,58.50
2022-10-16T12:35:18.844Z,58.58
2022-10-16T12:37:25.441Z,58.92
2022-10-16T12:39:30.353Z,58.55
2022-10-16T12:41:35.544Z,59.08
2022-10-16T12:43:43.203Z,59.30
2022-10-16T12:45:47.313Z,58.92
2022-10-16T12:47:52.302Z,59.34
2022-10-16T12:49:56.496Z,57.40
2022-10-16T12:52:00.700Z,57.63
2022-10-16T12:54:05.398Z,56.79
2022-10-16T12:56:24.213Z,57.27
2022-10-16T12:58:48.757Z,57.14
2022-10-16T13:00:58.454Z,57.05
2022-10-16T13:03:42.207Z,56.38
2022-10-16T13:05:58.062Z,54.86
2022-10-16T13:08:14.388Z,54.40
2022-10-16T13:10:27.469Z,53.58
2022-10-16T13:12:55.285Z,53.50
2022-10-16T13:15:21.556Z,54.08
2022-10-16T13:17:32.822Z,53.72
2022-10-16T13:19:42.270Z,53.94
2022-10-16T13:21:55.469Z,53.14
2022-10-16T13:24:05.361Z,53.57
2022-10-16T13:26:21.626Z,54.39
2022-10-16T13:28:30.419Z,54.10
2022-10-16T13:30:40.546Z,54.49
2022-10-16T13:32:48.094Z,54.12
2022-10-16T13:34:51.498Z,54.25
2022-10-16T13:36:55.320Z,53.93
2022-10-16T13:39:14.398Z,53.87
2022-10-16T13:41:19.349Z,54.05
2022-10-16T13:43:25.611Z,54.09
2022-10-16T13:45:28.218Z,54.34
2022-10-16T13:47:32.103Z,55.26
2022-10-16T13:49:34.926Z,54.56
2022-10-16T13:51:37.561Z,53.85
2022-10-16T13:53:41.314Z,53.76
2022-10-16T13:55:45.279Z,54.30
2022-10-16T13:57:48.367Z,52.94
2022-10-16T13:59:51.081Z,53.41
2022-10-16T14:01:56.012Z,54.48
2022-10-16T14:04:04.951Z,55.49
2022-10-16T14:06:14.618Z,54.15
2022-10-16T14:08:17.392Z,53.71
2022-10-16T14:10:26.540Z,54.26
2022-10-16T14:12:31.037Z,54.91
2022-10-16T14:14:42.043Z,55.11
2022-10-16T14:16:45.605Z,55.16
2022-10-16T14:18:51.412Z,55.18
2022-10-16T14:20:55.042Z,56.05
2022-10-16T14:23:03.240Z,57.18
2022-10-16T14:25:23.531Z,57.16
2022-10-16T14:27:32.895Z,57.27
2022-10-16T14:29:36.573Z,57.30
2022-10-16T14:31:40.745Z,58.96
2022-10-16T14:33:43.483Z,58.80
2022-10-16T14:35:46.275Z,58.37
2022-10-16T14:37:48.886Z,58.40
2022-10-16T14:39:52.052Z,59.33
2022-10-16T14:41:59.157Z,59.74
2022-10-16T14:44:06.141Z,59.32
2022-10-16T14:46:14.195Z,59.37
2022-10-16T14:48:20.736Z,59.72
2022-10-16T14:50:23.840Z,59.66
2022-10-16T14:52:26.619Z,59.65
2022-10-16T14:54:29.191Z,60.35
2022-10-16T14:56:35.865Z,61.28
2022-10-16T14:58:38.451Z,62.01
2022-10-16T15:00:42.365Z,62.47
2022-10-16T15:02:45.375Z,62.75
2022-10-16T15:04:48.185Z,62.36
2022-10-16T15:06:51.050Z,62.13
2022-10-16T15:08:53.599Z,62.00
2022-10-16T15:10:59.020Z,61.99
2022-10-16T15:13:01.589Z,62.97
2022-10-16T15:15:12.179Z,63.60
2022-10-16T15:17:17.501Z,63.99
2022-10-16T15:19:22.684Z,64.83
2022-10-16T15:21:29.252Z,65.24
2022-10-16T15:23:31.913Z,65.78
2022-10-16T15:25:37.652Z,66.54
2022-10-16T15:27:41.200Z,66.96
2022-10-16T15:29:43.727Z,67.55
2022-10-16T15:31:48.420Z,68.09
2022-10-16T15:33:57.012Z,68.35
2022-10-16T15:35:59.607Z,68.73
2022-10-16T15:38:02.334Z,69.01
2022-10-16T15:40:05.593Z,69.06
2022-10-16T15:42:08.419Z,68.83
2022-10-16T15:44:11.401Z,68.63
2022-10-16T15:46:15.322Z,68.31
2022-10-16T15:48:17.925Z,68.97
2022-10-16T15:50:21.932Z,69.36
2022-10-16T15:52:24.840Z,69.54
2022-10-16T15:54:27.526Z,70.16
2022-10-16T15:56:31.576Z,70.43
2022-10-16T15:58:34.923Z,70.78
2022-10-16T16:00:40.277Z,71.09
2022-10-16T16:02:44.388Z,71.60
2022-10-16T16:04:46.959Z,72.06
2022-10-16T16:06:50.881Z,72.39
2022-10-16T16:08:53.652Z,72.33
2022-10-16T16:11:00.518Z,72.10
2022-10-16T16:13:03.096Z,72.20
2022-10-16T16:15:06.819Z,72.45
2022-10-16T16:17:09.386Z,72.65
2022-10-16T16:19:12.264Z,71.99
2022-10-16T16:21:15.197Z,71.51
2022-10-16T16:23:20.041Z,71.09
2022-10-16T16:25:22.688Z,71.16
2022-10-16T16:27:26.272Z,70.81
2022-10-16T16:29:29.351Z,70.64
2022-10-16T16:31:33.512Z,70.95
2022-10-16T16:33:36.359Z,70.88
2022-10-16T16:35:38.985Z,70.73
2022-10-16T16:37:41.553Z,70.78
2022-10-16T16:39:45.491Z,70.54
2022-10-16T16:41:48.166Z,70.62
2022-10-16T16:43:52.192Z,70.85
2022-10-16T16:45:56.188Z,71.57
2022-10-16T16:47:58.761Z,71.64
2022-10-16T16:50:05.722Z,71.50
2022-10-16T16:52:08.613Z,71.05
2022-10-16T16:54:13.647Z,70.85
2022-10-16T16:56:18.595Z,70.28
2022-10-16T16:58:21.187Z,69.84
2022-10-16T17:00:23.749Z,69.89
2022-10-16T17:02:26.599Z,69.95
2022-10-16T17:04:29.412Z,70.38
2022-10-16T17:06:32.073Z,70.24
2022-10-16T17:08:34.796Z,69.53
2022-10-16T17:10:44.893Z,69.14
2022-10-16T17:12:48.883Z,68.80
2022-10-16T17:14:52.563Z,68.88
2022-10-16T17:16:55.264Z,68.81
2022-10-16T17:19:00.564Z,69.06
2022-10-16T17:21:04.280Z,69.36
2022-10-16T17:23:06.929Z,69.57
2022-10-16T17:25:10.122Z,69.74
2022-10-16T17:27:12.918Z,70.05
2022-10-16T17:29:18.078Z,70.36
2022-10-16T17:31:22.332Z,70.29
2022-10-16T17:33:25.365Z,69.55
2022-10-16T17:35:28.223Z,69.96
2022-10-16T17:37:30.811Z,69.89
2022-10-16T17:39:35.665Z,70.03
2022-10-16T17:41:38.749Z,69.79
2022-10-16T17:43:41.833Z,69.87
2022-10-16T17:45:45.875Z,69.58
2022-10-16T17:47:48.512Z,69.10
2022-10-16T17:49:51.396Z,68.53
2022-10-16T17:51:55.304Z,68.53
2022-10-16T17:53:59.294Z,68.45
2022-10-16T17:56:05.048Z,69.07
2022-10-16T17:58:08.057Z,69.05
2022-10-16T18:00:11.725Z,68.66
2022-10-16T18:02:16.333Z,69.09
2022-10-16T18:04:19.137Z,69.22
2022-10-16T18:06:23.367Z,69.05
2022-10-16T18:08:28.668Z,69.42
2022-10-16T18:10:31.553Z,69.22
2022-10-16T18:12:34.466Z,69.35
2022-10-16T18:14:37.079Z,69.26
2022-10-16T18:16:39.804Z,69.15
2022-10-16T18:18:45.701Z,70.00
2022-10-16T18:20:57.620Z,69.53
2022-10-16T18:23:00.201Z,69.46
2022-10-16T18:25:04.345Z,69.68
2022-10-16T18:27:07.318Z,69.98
2022-10-16T18:29:11.624Z,69.79
2022-10-16T18:31:15.895Z,69.93
2022-10-16T18:33:18.476Z,69.30
2022-10-16T18:35:22.423Z,69.40
2022-10-16T18:37:25.269Z,69.60
2022-10-16T18:39:28.221Z,69.52
2022-10-16T18:41:32.577Z,69.50
2022-10-16T18:43:35.866Z,69.78
2022-10-16T18:45:38.538Z,70.18
2022-10-16T18:47:41.101Z,70.34
2022-10-16T18:49:44.188Z,70.29
2022-10-16T18:51:48.635Z,70.44
2022-10-16T18:53:54.179Z,69.95
2022-10-16T18:55:56.924Z,69.74
2022-10-16T18:57:59.503Z,69.55
2022-10-16T19:00:02.072Z,69.49
2022-10-16T19:02:04.781Z,69.33
2022-10-16T19:04:09.470Z,69.04
2022-10-16T19:06:14.307Z,68.82
2022-10-16T19:08:18.195Z,68.88
2022-10-16T19:10:20.774Z,68.70
2022-10-16T19:12:23.345Z,68.82
2022-10-16T19:14:26.020Z,68.84
2022-10-16T19:16:31.071Z,68.44
2022-10-16T19:18:38.341Z,68.38
2022-10-16T19:20:40.896Z,68.04
2022-10-16T19:22:54.271Z,68.03
2022-10-16T19:24:58.238Z,68.12
2022-10-16T19:27:00.796Z,67.99
2022-10-16T19:29:05.507Z,68.17
2022-10-16T19:31:11.490Z,68.20
2022-10-16T19:33:14.118Z,68.04
2022-10-16T19:35:16.950Z,68.02
2022-10-16T19:37:25.671Z,68.05
2022-10-16T19:39:28.281Z,68.19
2022-10-16T19:41:32.659Z,68.41
2022-10-16T19:43:35.336Z,68.27
2022-10-16T19:45:38.116Z,68.45
2022-10-16T19:47:40.861Z,68.06
2022-10-16T19:49:44.890Z,68.28
2022-10-16T19:51:48.125Z,68.95
2022-10-16T19:53:56.147Z,68.99
2022-10-16T19:55:59.498Z,69.39
2022-10-16T19:58:03.424Z,69.34
2022-10-16T20:00:08.437Z,68.87
2022-10-16T20:02:12.266Z,68.90
2022-10-16T20:04:15.161Z,69.25
2022-10-16T20:06:18.743Z,69.23
2022-10-16T20:08:21.537Z,68.46
2022-10-16T20:10:25.131Z,68.30
2022-10-16T20:12:27.884Z,68.15
2022-10-16T20:14:31.893Z,68.12
2022-10-16T20:16:34.698Z,68.32
2022-10-16T20:18:37.531Z,68.50
2022-10-16T20:20:40.904Z,68.32
2022-10-16T20:22:43.533Z,68.60
2022-10-16T20:24:46.269Z,68.97
2022-10-16T20:26:49.915Z,68.17
2022-10-16T20:28:53.719Z,67.71
2022-10-16T20:30:58.073Z,68.19
2022-10-16T20:33:00.870Z,68.35
2022-10-16T20:35:07.082Z,67.99
2022-10-16T20:37:10.768Z,68.28
2022-10-16T20:39:14.662Z,68.47
2022-10-16T20:41:18.512Z,68.44
2022-10-16T20:43:21.376Z,68.61
2022-10-16T20:45:23.961Z,68.63
2022-10-16T20:47:28.226Z,68.76
2022-10-16T20:49:40.269Z,68.67
2022-10-16T20:51:43.955Z,68.92
2022-10-16T20:53:48.000Z,68.67
2022-10-16T20:55:50.676Z,68.42
2022-10-16T20:57:53.683Z,68.31
2022-10-16T20:59:56.337Z,68.49
2022-10-16T21:01:59.102Z,68.47
2022-10-16T21:04:05.907Z,68.65
2022-10-16T21:06:10.734Z,68.54
2022-10-16T21:08:13.367Z,67.78
2022-10-16T21:10:16.072Z,68.16
2022-10-16T21:12:18.771Z,68.40
2022-10-16T21:14:22.092Z,68.60
2022-10-16T21:16:25.042Z,69.07
2022-10-16T21:18:28.596Z,69.07
2022-10-16T21:20:32.667Z,68.82
2022-10-16T21:22:35.337Z,68.54
2022-10-16T21:24:39.859Z,68.71
2022-10-16T21:26:42.461Z,68.16
2022-10-16T21:28:45.214Z,68.85
2022-10-16T21:30:47.876Z,69.18
2022-10-16T21:32:50.454Z,68.88
2022-10-16T21:34:53.041Z,68.90
2022-10-16T21:36:56.969Z,68.85
2022-10-16T21:39:02.982Z,69.01
2022-10-16T21:41:13.469Z,69.17
2022-10-16T21:43:16.399Z,69.47
2022-10-16T21:45:19.015Z,69.89
2022-10-16T21:47:21.608Z,70.27
2022-10-16T21:49:24.574Z,70.24
2022-10-16T21:51:28.168Z,70.68
2022-10-16T21:53:32.154Z,69.88
2022-10-16T21:55:37.740Z,70.34
2022-10-16T21:57:40.388Z,71.08
2022-10-16T21:59:43.001Z,70.68
2022-10-16T22:01:45.658Z,70.65
2022-10-16T22:03:48.602Z,70.83
2022-10-16T22:05:51.923Z,71.61
2022-10-16T22:07:54.528Z,70.50
2022-10-16T22:09:58.444Z,71.01
2022-10-16T22:12:01.025Z,71.65
2022-10-16T22:14:05.168Z,71.60
2022-10-16T22:16:08.665Z,70.89
2022-10-16T22:18:11.272Z,70.96
2022-10-16T22:20:13.891Z,71.58
2022-10-16T22:22:16.518Z,72.04
2022-10-16T22:24:19.466Z,72.88
2022-10-16T22:26:23.529Z,73.39
2022-10-16T22:28:26.084Z,74.11
2022-10-16T22:30:28.677Z,74.36
2022-10-16T22:32:31.690Z,74.08
2022-10-16T22:34:34.252Z,74.14
2022-10-16T22:36:35.857Z,73.76
2022-10-16T22:38:38.459Z,74.30
2022-10-16T22:40:41.675Z,74.70
2022-10-16T22:42:45.694Z,74.57
2022-10-16T22:44:48.251Z,74.83
2022-10-16T22:46:50.835Z,74.62
2022-10-16T22:48:56.020Z,74.49
2022-10-16T22:50:58.783Z,74.62
2022-10-16T22:53:01.325Z,74.95
2022-10-16T22:55:04.492Z,75.32
2022-10-16T22:57:07.091Z,75.54
2022-10-16T22:59:11.432Z,74.88
2022-10-16T23:01:17.052Z,74.50
2022-10-16T23:03:19.964Z,74.51
2022-10-16T23:05:22.649Z,75.25
2022-10-16T23:07:25.313Z,75.71
2022-10-16T23:09:28.168Z,75.69
2022-10-16T23:11:31.276Z,75.75
2022-10-16T23:13:36.536Z,76.58
2022-10-16T23:15:42.139Z,76.94
2022-10-16T23:17:44.709Z,77.22
2022-10-16T23:19:47.753Z,77.38
2022-10-16T23:21:50.427Z,76.67
2022-10-16T23:23:54.311Z,76.51
2022-10-16T23:25:56.906Z,76.60
2022-10-16T23:27:59.541Z,76.61
2022-10-16T23:30:02.416Z,76.58
2022-10-16T23:32:06.412Z,76.46
2022-10-16T23:34:08.993Z,76.20
2022-10-16T23:36:13.370Z,76.30
2022-10-16T23:38:16.023Z,76.18
2022-10-16T23:40:18.990Z,76.45
2022-10-16T23:42:21.685Z,76.87
2022-10-16T23:44:24.262Z,76.70
2022-10-16T23:46:26.859Z,76.58
2022-10-16T23:48:31.207Z,77.22
2022-10-16T23:50:33.809Z,77.12
2022-10-16T23:52:36.420Z,77.36
2022-10-16T23:54:39.045Z,77.53
2022-10-16T23:56:41.607Z,77.75
2022-10-16T23:58:44.238Z,77.47
